sensor_id;sensor_type;location;lat;lon;timestamp;P1;durP1;ratioP1;P2;durP2;ratioP2
77379;SDS011;66439;50.106;10.996;2023-03-23T00:01:23;38.60;;;15.40;;
77379;SDS011;66439;50.106;10.996;2023-03-23T00:03:27;34.50;;;14.30;;
77379;SDS011;66439;50.106;10.996;2023-03-23T00:05:47;31.90;;;15.20;;
77379;SDS011;66439;50.106;10.996;2023-03-23T00:07:52;36.90;;;15.60;;
77379;SDS011;66439;50.106;10.996;2023-03-23T00:09:57;35.30;;;14.60;;
77379;SDS011;66439;50.106;10.996;2023-03-23T00:12:00;33.70;;;15.20;;
77379;SDS011;66439;50.106;10.996;2023-03-23T00:14:07;37.40;;;16.30;;
77379;SDS011;66439;50.106;10.996;2023-03-23T00:16:14;38.10;;;15.90;;
77379;SDS011;66439;50.106;10.996;2023-03-23T00:18:19;38.00;;;17.70;;
77379;SDS011;66439;50.106;10.996;2023-03-23T00:20:24;36.70;;;17.30;;
77379;SDS011;66439;50.106;10.996;2023-03-23T00:22:30;40.20;;;15.20;;
77379;SDS011;66439;50.106;10.996;2023-03-23T00:24:32;35.10;;;14.10;;
77379;SDS011;66439;50.106;10.996;2023-03-23T00:26:35;35.60;;;13.70;;
77379;SDS011;66439;50.106;10.996;2023-03-23T00:28:41;35.50;;;14.50;;
77379;SDS011;66439;50.106;10.996;2023-03-23T00:30:43;34.50;;;14.40;;
77379;SDS011;66439;50.106;10.996;2023-03-23T00:32:45;26.60;;;12.50;;
77379;SDS011;66439;50.106;10.996;2023-03-23T00:34:47;34.10;;;13.80;;
77379;SDS011;66439;50.106;10.996;2023-03-23T00:36:53;37.80;;;15.10;;
77379;SDS011;66439;50.106;10.996;2023-03-23T00:38:57;37.00;;;13.70;;
77379;SDS011;66439;50.106;10.996;2023-03-23T00:41:00;30.30;;;15.40;;
77379;SDS011;66439;50.106;10.996;2023-03-23T00:43:03;33.60;;;15.70;;
77379;SDS011;66439;50.106;10.996;2023-03-23T00:45:05;32.80;;;13.80;;
77379;SDS011;66439;50.106;10.996;2023-03-23T00:47:13;36.10;;;14.20;;
77379;SDS011;66439;50.106;10.996;2023-03-23T00:49:17;38.50;;;15.90;;
77379;SDS011;66439;50.106;10.996;2023-03-23T00:51:20;32.70;;;13.60;;
77379;SDS011;66439;50.106;10.996;2023-03-23T00:53:23;33.60;;;14.10;;
77379;SDS011;66439;50.106;10.996;2023-03-23T00:55:24;43.20;;;14.90;;
77379;SDS011;66439;50.106;10.996;2023-03-23T00:57:26;31.90;;;13.90;;
77379;SDS011;66439;50.106;10.996;2023-03-23T00:59:28;36.40;;;14.80;;
77379;SDS011;66439;50.106;10.996;2023-03-23T01:01:30;34.30;;;14.00;;
77379;SDS011;66439;50.106;10.996;2023-03-23T01:03:32;33.80;;;13.00;;
77379;SDS011;66439;50.106;10.996;2023-03-23T01:05:42;36.20;;;14.30;;
77379;SDS011;66439;50.106;10.996;2023-03-23T01:07:44;41.80;;;15.50;;
77379;SDS011;66439;50.106;10.996;2023-03-23T01:09:47;39.60;;;15.10;;
77379;SDS011;66439;50.106;10.996;2023-03-23T01:11:51;32.30;;;15.50;;
77379;SDS011;66439;50.106;10.996;2023-03-23T01:13:55;29.70;;;14.30;;
77379;SDS011;66439;50.106;10.996;2023-03-23T01:15:59;31.20;;;13.50;;
77379;SDS011;66439;50.106;10.996;2023-03-23T01:18:01;35.40;;;14.40;;
77379;SDS011;66439;50.106;10.996;2023-03-23T01:20:03;33.80;;;14.10;;
77379;SDS011;66439;50.106;10.996;2023-03-23T01:22:06;32.80;;;16.00;;
77379;SDS011;66439;50.106;10.996;2023-03-23T01:24:15;27.00;;;13.60;;
77379;SDS011;66439;50.106;10.996;2023-03-23T01:26:18;31.70;;;13.40;;
77379;SDS011;66439;50.106;10.996;2023-03-23T01:28:22;30.90;;;14.90;;
77379;SDS011;66439;50.106;10.996;2023-03-23T01:30:24;28.70;;;14.90;;
77379;SDS011;66439;50.106;10.996;2023-03-23T01:32:26;27.50;;;13.50;;
77379;SDS011;66439;50.106;10.996;2023-03-23T01:34:30;26.10;;;12.10;;
77379;SDS011;66439;50.106;10.996;2023-03-23T01:36:32;27.40;;;11.00;;
77379;SDS011;66439;50.106;10.996;2023-03-23T01:38:36;26.80;;;12.20;;
77379;SDS011;66439;50.106;10.996;2023-03-23T01:40:38;23.00;;;10.60;;
77379;SDS011;66439;50.106;10.996;2023-03-23T01:42:40;27.00;;;11.80;;
77379;SDS011;66439;50.106;10.996;2023-03-23T01:46:50;24.20;;;11.50;;
77379;SDS011;66439;50.106;10.996;2023-03-23T01:48:51;19.70;;;10.90;;
77379;SDS011;66439;50.106;10.996;2023-03-23T01:50:58;20.20;;;10.50;;
77379;SDS011;66439;50.106;10.996;2023-03-23T01:53:06;32.40;;;13.40;;
77379;SDS011;66439;50.106;10.996;2023-03-23T01:55:14;33.30;;;12.30;;
77379;SDS011;66439;50.106;10.996;2023-03-23T01:57:17;27.10;;;12.70;;
77379;SDS011;66439;50.106;10.996;2023-03-23T01:59:22;27.70;;;11.70;;
77379;SDS011;66439;50.106;10.996;2023-03-23T02:01:42;26.10;;;12.10;;
77379;SDS011;66439;50.106;10.996;2023-03-23T02:03:47;31.60;;;12.60;;
77379;SDS011;66439;50.106;10.996;2023-03-23T02:05:52;25.30;;;11.70;;
77379;SDS011;66439;50.106;10.996;2023-03-23T02:08:05;23.00;;;11.20;;
77379;SDS011;66439;50.106;10.996;2023-03-23T02:10:09;27.70;;;12.90;;
77379;SDS011;66439;50.106;10.996;2023-03-23T02:12:11;31.80;;;11.40;;
77379;SDS011;66439;50.106;10.996;2023-03-23T02:14:13;29.00;;;11.90;;
77379;SDS011;66439;50.106;10.996;2023-03-23T02:16:21;22.00;;;10.30;;
77379;SDS011;66439;50.106;10.996;2023-03-23T02:21:39;35.00;;;14.10;;
77379;SDS011;66439;50.106;10.996;2023-03-23T02:29:46;20.30;;;10.20;;
77379;SDS011;66439;50.106;10.996;2023-03-23T02:31:59;25.30;;;14.20;;
77379;SDS011;66439;50.106;10.996;2023-03-23T02:36:58;23.90;;;10.60;;
77379;SDS011;66439;50.106;10.996;2023-03-23T02:39:14;24.10;;;11.20;;
77379;SDS011;66439;50.106;10.996;2023-03-23T02:41:57;22.50;;;8.90;;
77379;SDS011;66439;50.106;10.996;2023-03-23T02:44:04;29.20;;;12.00;;
77379;SDS011;66439;50.106;10.996;2023-03-23T02:46:07;23.90;;;11.20;;
77379;SDS011;66439;50.106;10.996;2023-03-23T02:48:12;26.00;;;11.10;;
77379;SDS011;66439;50.106;10.996;2023-03-23T02:50:17;19.40;;;10.00;;
77379;SDS011;66439;50.106;10.996;2023-03-23T02:52:24;31.10;;;12.70;;
77379;SDS011;66439;50.106;10.996;2023-03-23T02:54:30;28.00;;;11.10;;
77379;SDS011;66439;50.106;10.996;2023-03-23T02:56:33;32.50;;;11.50;;
77379;SDS011;66439;50.106;10.996;2023-03-23T02:58:38;33.10;;;11.60;;
77379;SDS011;66439;50.106;10.996;2023-03-23T03:00:41;31.30;;;11.30;;
77379;SDS011;66439;50.106;10.996;2023-03-23T03:02:43;23.20;;;11.30;;
77379;SDS011;66439;50.106;10.996;2023-03-23T03:04:59;26.80;;;11.70;;
77379;SDS011;66439;50.106;10.996;2023-03-23T03:07:35;24.40;;;10.70;;
77379;SDS011;66439;50.106;10.996;2023-03-23T03:09:55;18.60;;;10.40;;
77379;SDS011;66439;50.106;10.996;2023-03-23T03:12:08;26.10;;;11.10;;
77379;SDS011;66439;50.106;10.996;2023-03-23T03:14:21;29.40;;;10.30;;
77379;SDS011;66439;50.106;10.996;2023-03-23T03:18:36;28.30;;;10.10;;
77379;SDS011;66439;50.106;10.996;2023-03-23T03:20:47;25.30;;;11.20;;
77379;SDS011;66439;50.106;10.996;2023-03-23T03:22:53;21.40;;;10.80;;
77379;SDS011;66439;50.106;10.996;2023-03-23T03:24:59;24.50;;;12.30;;
77379;SDS011;66439;50.106;10.996;2023-03-23T03:27:02;30.50;;;12.90;;
77379;SDS011;66439;50.106;10.996;2023-03-23T03:29:29;29.40;;;11.40;;
77379;SDS011;66439;50.106;10.996;2023-03-23T03:31:36;29.40;;;10.90;;
77379;SDS011;66439;50.106;10.996;2023-03-23T03:33:40;27.90;;;11.70;;
77379;SDS011;66439;50.106;10.996;2023-03-23T03:35:43;25.50;;;11.00;;
77379;SDS011;66439;50.106;10.996;2023-03-23T03:37:46;25.30;;;12.10;;
77379;SDS011;66439;50.106;10.996;2023-03-23T03:39:49;28.80;;;11.50;;
77379;SDS011;66439;50.106;10.996;2023-03-23T03:41:52;35.10;;;14.10;;
77379;SDS011;66439;50.106;10.996;2023-03-23T03:43:55;23.40;;;11.80;;
77379;SDS011;66439;50.106;10.996;2023-03-23T03:45:57;28.90;;;10.50;;
77379;SDS011;66439;50.106;10.996;2023-03-23T03:47:59;30.00;;;11.20;;
77379;SDS011;66439;50.106;10.996;2023-03-23T03:50:02;21.80;;;11.20;;
77379;SDS011;66439;50.106;10.996;2023-03-23T03:52:05;26.70;;;12.10;;
77379;SDS011;66439;50.106;10.996;2023-03-23T03:54:15;30.50;;;12.40;;
77379;SDS011;66439;50.106;10.996;2023-03-23T03:56:19;28.00;;;13.70;;
77379;SDS011;66439;50.106;10.996;2023-03-23T03:58:34;22.70;;;11.50;;
77379;SDS011;66439;50.106;10.996;2023-03-23T04:00:37;24.40;;;10.50;;
77379;SDS011;66439;50.106;10.996;2023-03-23T04:02:43;25.40;;;10.40;;
77379;SDS011;66439;50.106;10.996;2023-03-23T04:04:54;24.00;;;14.00;;
77379;SDS011;66439;50.106;10.996;2023-03-23T04:06:56;31.00;;;13.50;;
77379;SDS011;66439;50.106;10.996;2023-03-23T04:08:59;28.70;;;12.90;;
77379;SDS011;66439;50.106;10.996;2023-03-23T04:11:03;24.20;;;12.00;;
77379;SDS011;66439;50.106;10.996;2023-03-23T04:13:05;36.40;;;14.40;;
77379;SDS011;66439;50.106;10.996;2023-03-23T04:15:29;22.60;;;11.90;;
77379;SDS011;66439;50.106;10.996;2023-03-23T04:17:30;24.60;;;11.40;;
77379;SDS011;66439;50.106;10.996;2023-03-23T04:19:32;26.40;;;12.20;;
77379;SDS011;66439;50.106;10.996;2023-03-23T04:21:35;25.90;;;12.10;;
77379;SDS011;66439;50.106;10.996;2023-03-23T04:23:40;22.70;;;11.40;;
77379;SDS011;66439;50.106;10.996;2023-03-23T04:25:43;30.60;;;14.10;;
77379;SDS011;66439;50.106;10.996;2023-03-23T04:27:46;26.50;;;14.10;;
77379;SDS011;66439;50.106;10.996;2023-03-23T04:30:02;21.20;;;10.80;;
77379;SDS011;66439;50.106;10.996;2023-03-23T04:32:22;25.40;;;10.10;;
77379;SDS011;66439;50.106;10.996;2023-03-23T04:34:27;24.90;;;11.70;;
77379;SDS011;66439;50.106;10.996;2023-03-23T04:36:29;26.30;;;11.80;;
77379;SDS011;66439;50.106;10.996;2023-03-23T04:38:34;28.90;;;10.70;;
77379;SDS011;66439;50.106;10.996;2023-03-23T04:40:43;27.70;;;11.10;;
77379;SDS011;66439;50.106;10.996;2023-03-23T04:42:55;48.70;;;15.40;;
77379;SDS011;66439;50.106;10.996;2023-03-23T04:45:21;25.10;;;10.90;;
77379;SDS011;66439;50.106;10.996;2023-03-23T04:47:25;24.30;;;11.30;;
77379;SDS011;66439;50.106;10.996;2023-03-23T04:49:34;26.50;;;10.80;;
77379;SDS011;66439;50.106;10.996;2023-03-23T04:51:52;28.60;;;12.50;;
77379;SDS011;66439;50.106;10.996;2023-03-23T04:54:07;22.20;;;10.70;;
77379;SDS011;66439;50.106;10.996;2023-03-23T04:56:10;28.50;;;13.70;;
77379;SDS011;66439;50.106;10.996;2023-03-23T04:58:17;21.10;;;10.10;;
77379;SDS011;66439;50.106;10.996;2023-03-23T05:00:42;27.40;;;11.20;;
77379;SDS011;66439;50.106;10.996;2023-03-23T05:02:51;25.50;;;12.20;;
77379;SDS011;66439;50.106;10.996;2023-03-23T05:04:56;27.20;;;11.60;;
77379;SDS011;66439;50.106;10.996;2023-03-23T05:07:00;27.50;;;13.40;;
77379;SDS011;66439;50.106;10.996;2023-03-23T05:09:04;28.10;;;13.20;;
77379;SDS011;66439;50.106;10.996;2023-03-23T05:11:06;23.50;;;11.90;;
77379;SDS011;66439;50.106;10.996;2023-03-23T05:13:10;26.20;;;10.70;;
77379;SDS011;66439;50.106;10.996;2023-03-23T05:15:13;30.60;;;11.90;;
77379;SDS011;66439;50.106;10.996;2023-03-23T05:17:17;25.30;;;11.40;;
77379;SDS011;66439;50.106;10.996;2023-03-23T05:19:29;24.20;;;10.70;;
77379;SDS011;66439;50.106;10.996;2023-03-23T05:21:31;25.10;;;10.40;;
77379;SDS011;66439;50.106;10.996;2023-03-23T05:23:33;20.30;;;10.00;;
77379;SDS011;66439;50.106;10.996;2023-03-23T05:25:40;27.20;;;10.80;;
77379;SDS011;66439;50.106;10.996;2023-03-23T05:27:48;25.90;;;10.30;;
77379;SDS011;66439;50.106;10.996;2023-03-23T05:30:04;28.20;;;12.30;;
77379;SDS011;66439;50.106;10.996;2023-03-23T05:32:18;30.10;;;11.80;;
77379;SDS011;66439;50.106;10.996;2023-03-23T05:34:22;26.10;;;13.10;;
77379;SDS011;66439;50.106;10.996;2023-03-23T05:36:31;28.20;;;10.60;;
77379;SDS011;66439;50.106;10.996;2023-03-23T05:38:47;29.40;;;12.20;;
77379;SDS011;66439;50.106;10.996;2023-03-23T05:40:51;32.20;;;12.80;;
77379;SDS011;66439;50.106;10.996;2023-03-23T05:43:00;23.20;;;11.10;;
77379;SDS011;66439;50.106;10.996;2023-03-23T05:45:17;26.10;;;12.60;;
77379;SDS011;66439;50.106;10.996;2023-03-23T05:47:25;25.00;;;10.20;;
77379;SDS011;66439;50.106;10.996;2023-03-23T05:49:30;19.20;;;10.10;;
77379;SDS011;66439;50.106;10.996;2023-03-23T05:51:32;27.20;;;11.20;;
77379;SDS011;66439;50.106;10.996;2023-03-23T05:53:34;22.60;;;10.50;;
77379;SDS011;66439;50.106;10.996;2023-03-23T05:57:58;32.50;;;14.70;;
77379;SDS011;66439;50.106;10.996;2023-03-23T06:00:04;27.10;;;10.90;;
77379;SDS011;66439;50.106;10.996;2023-03-23T06:02:17;24.00;;;10.70;;
77379;SDS011;66439;50.106;10.996;2023-03-23T06:04:19;25.10;;;10.70;;
77379;SDS011;66439;50.106;10.996;2023-03-23T06:06:31;30.40;;;10.30;;
77379;SDS011;66439;50.106;10.996;2023-03-23T06:08:44;24.00;;;10.00;;
77379;SDS011;66439;50.106;10.996;2023-03-23T06:10:46;26.60;;;10.10;;
77379;SDS011;66439;50.106;10.996;2023-03-23T06:12:49;28.20;;;11.10;;
77379;SDS011;66439;50.106;10.996;2023-03-23T06:15:02;30.60;;;13.70;;
77379;SDS011;66439;50.106;10.996;2023-03-23T06:17:24;26.90;;;11.10;;
77379;SDS011;66439;50.106;10.996;2023-03-23T06:19:29;34.90;;;12.10;;
77379;SDS011;66439;50.106;10.996;2023-03-23T06:22:01;25.30;;;11.70;;
77379;SDS011;66439;50.106;10.996;2023-03-23T06:24:18;25.40;;;10.20;;
77379;SDS011;66439;50.106;10.996;2023-03-23T06:26:20;28.80;;;11.40;;
77379;SDS011;66439;50.106;10.996;2023-03-23T06:28:30;28.80;;;10.60;;
77379;SDS011;66439;50.106;10.996;2023-03-23T06:30:33;24.60;;;10.80;;
77379;SDS011;66439;50.106;10.996;2023-03-23T06:32:35;19.80;;;9.10;;
77379;SDS011;66439;50.106;10.996;2023-03-23T06:34:53;29.20;;;13.00;;
77379;SDS011;66439;50.106;10.996;2023-03-23T06:37:22;33.40;;;13.60;;
77379;SDS011;66439;50.106;10.996;2023-03-23T06:39:36;32.40;;;12.20;;
77379;SDS011;66439;50.106;10.996;2023-03-23T06:42:00;29.40;;;11.70;;
77379;SDS011;66439;50.106;10.996;2023-03-23T06:44:04;31.50;;;13.60;;
77379;SDS011;66439;50.106;10.996;2023-03-23T06:46:07;28.00;;;13.30;;
77379;SDS011;66439;50.106;10.996;2023-03-23T06:48:16;36.00;;;15.40;;
77379;SDS011;66439;50.106;10.996;2023-03-23T06:50:23;45.10;;;17.20;;
77379;SDS011;66439;50.106;10.996;2023-03-23T06:52:25;28.60;;;12.30;;
77379;SDS011;66439;50.106;10.996;2023-03-23T06:54:28;26.50;;;12.60;;
77379;SDS011;66439;50.106;10.996;2023-03-23T06:56:31;25.60;;;10.40;;
77379;SDS011;66439;50.106;10.996;2023-03-23T06:58:37;27.00;;;10.30;;
77379;SDS011;66439;50.106;10.996;2023-03-23T07:00:40;26.60;;;10.70;;
77379;SDS011;66439;50.106;10.996;2023-03-23T07:02:43;29.90;;;11.40;;
77379;SDS011;66439;50.106;10.996;2023-03-23T07:04:45;23.40;;;10.90;;
77379;SDS011;66439;50.106;10.996;2023-03-23T07:06:55;26.30;;;12.50;;
77379;SDS011;66439;50.106;10.996;2023-03-23T07:08:59;32.30;;;12.50;;
77379;SDS011;66439;50.106;10.996;2023-03-23T07:11:02;25.60;;;10.90;;
77379;SDS011;66439;50.106;10.996;2023-03-23T07:13:05;28.80;;;11.70;;
77379;SDS011;66439;50.106;10.996;2023-03-23T07:15:14;36.90;;;11.90;;
77379;SDS011;66439;50.106;10.996;2023-03-23T07:17:16;38.80;;;12.70;;
77379;SDS011;66439;50.106;10.996;2023-03-23T07:19:37;28.50;;;13.50;;
77379;SDS011;66439;50.106;10.996;2023-03-23T07:21:53;38.10;;;13.80;;
77379;SDS011;66439;50.106;10.996;2023-03-23T07:23:56;35.60;;;14.30;;
77379;SDS011;66439;50.106;10.996;2023-03-23T07:26:22;34.10;;;15.70;;
77379;SDS011;66439;50.106;10.996;2023-03-23T07:28:26;35.30;;;13.70;;
77379;SDS011;66439;50.106;10.996;2023-03-23T07:30:29;30.80;;;13.20;;
77379;SDS011;66439;50.106;10.996;2023-03-23T07:32:33;33.70;;;14.70;;
77379;SDS011;66439;50.106;10.996;2023-03-23T07:34:34;33.30;;;14.70;;
77379;SDS011;66439;50.106;10.996;2023-03-23T07:36:46;37.30;;;16.30;;
77379;SDS011;66439;50.106;10.996;2023-03-23T07:38:48;33.80;;;14.50;;
77379;SDS011;66439;50.106;10.996;2023-03-23T07:40:51;33.40;;;13.80;;
77379;SDS011;66439;50.106;10.996;2023-03-23T07:42:54;34.20;;;14.90;;
77379;SDS011;66439;50.106;10.996;2023-03-23T07:45:16;39.90;;;15.80;;
77379;SDS011;66439;50.106;10.996;2023-03-23T07:47:20;42.80;;;18.70;;
77379;SDS011;66439;50.106;10.996;2023-03-23T07:49:23;46.50;;;17.00;;
77379;SDS011;66439;50.106;10.996;2023-03-23T07:51:34;53.00;;;18.90;;
77379;SDS011;66439;50.106;10.996;2023-03-23T07:53:35;47.60;;;19.70;;
77379;SDS011;66439;50.106;10.996;2023-03-23T07:56:03;47.70;;;16.90;;
77379;SDS011;66439;50.106;10.996;2023-03-23T07:58:43;42.60;;;17.20;;
77379;SDS011;66439;50.106;10.996;2023-03-23T08:00:46;40.50;;;21.00;;
77379;SDS011;66439;50.106;10.996;2023-03-23T08:02:53;45.90;;;20.80;;
77379;SDS011;66439;50.106;10.996;2023-03-23T08:05:07;39.90;;;19.30;;
77379;SDS011;66439;50.106;10.996;2023-03-23T08:07:34;48.70;;;20.00;;
77379;SDS011;66439;50.106;10.996;2023-03-23T08:10:11;41.90;;;21.80;;
77379;SDS011;66439;50.106;10.996;2023-03-23T08:12:30;48.00;;;20.10;;
77379;SDS011;66439;50.106;10.996;2023-03-23T08:14:56;44.10;;;19.30;;
77379;SDS011;66439;50.106;10.996;2023-03-23T08:17:09;51.30;;;21.70;;
77379;SDS011;66439;50.106;10.996;2023-03-23T08:19:37;50.40;;;19.30;;
77379;SDS011;66439;50.106;10.996;2023-03-23T08:22:03;44.10;;;20.00;;
77379;SDS011;66439;50.106;10.996;2023-03-23T08:24:33;46.70;;;17.50;;
77379;SDS011;66439;50.106;10.996;2023-03-23T08:26:58;41.40;;;16.60;;
77379;SDS011;66439;50.106;10.996;2023-03-23T08:29:21;38.60;;;15.70;;
77379;SDS011;66439;50.106;10.996;2023-03-23T08:31:33;42.50;;;15.80;;
77379;SDS011;66439;50.106;10.996;2023-03-23T08:33:47;37.60;;;17.20;;
77379;SDS011;66439;50.106;10.996;2023-03-23T08:36:00;38.40;;;16.40;;
77379;SDS011;66439;50.106;10.996;2023-03-23T08:38:23;38.30;;;20.60;;
77379;SDS011;66439;50.106;10.996;2023-03-23T08:40:43;36.90;;;15.50;;
77379;SDS011;66439;50.106;10.996;2023-03-23T08:42:54;33.90;;;15.20;;
77379;SDS011;66439;50.106;10.996;2023-03-23T08:45:06;31.90;;;14.90;;
77379;SDS011;66439;50.106;10.996;2023-03-23T08:47:29;35.50;;;15.50;;
77379;SDS011;66439;50.106;10.996;2023-03-23T08:49:53;41.50;;;17.10;;
77379;SDS011;66439;50.106;10.996;2023-03-23T08:52:19;36.90;;;16.50;;
77379;SDS011;66439;50.106;10.996;2023-03-23T08:54:32;33.00;;;13.20;;
77379;SDS011;66439;50.106;10.996;2023-03-23T08:56:58;22.90;;;12.90;;
77379;SDS011;66439;50.106;10.996;2023-03-23T08:59:04;30.90;;;14.90;;
77379;SDS011;66439;50.106;10.996;2023-03-23T09:01:20;28.60;;;13.80;;
77379;SDS011;66439;50.106;10.996;2023-03-23T09:03:36;38.10;;;13.60;;
77379;SDS011;66439;50.106;10.996;2023-03-23T09:05:53;31.00;;;13.90;;
77379;SDS011;66439;50.106;10.996;2023-03-23T09:08:03;28.10;;;14.60;;
77379;SDS011;66439;50.106;10.996;2023-03-23T09:10:06;29.70;;;11.80;;
77379;SDS011;66439;50.106;10.996;2023-03-23T09:12:16;40.30;;;15.50;;
77379;SDS011;66439;50.106;10.996;2023-03-23T09:14:18;31.20;;;13.40;;
77379;SDS011;66439;50.106;10.996;2023-03-23T09:16:20;35.30;;;15.00;;
77379;SDS011;66439;50.106;10.996;2023-03-23T09:18:21;38.20;;;14.70;;
77379;SDS011;66439;50.106;10.996;2023-03-23T09:20:25;40.70;;;18.80;;
77379;SDS011;66439;50.106;10.996;2023-03-23T09:22:28;39.10;;;15.90;;
77379;SDS011;66439;50.106;10.996;2023-03-23T09:24:30;37.70;;;18.30;;
77379;SDS011;66439;50.106;10.996;2023-03-23T09:26:33;35.90;;;15.70;;
77379;SDS011;66439;50.106;10.996;2023-03-23T09:28:34;39.60;;;17.70;;
77379;SDS011;66439;50.106;10.996;2023-03-23T09:30:36;45.60;;;19.60;;
77379;SDS011;66439;50.106;10.996;2023-03-23T09:32:42;34.60;;;15.40;;
77379;SDS011;66439;50.106;10.996;2023-03-23T09:34:45;35.40;;;15.10;;
77379;SDS011;66439;50.106;10.996;2023-03-23T09:36:47;31.60;;;15.10;;
77379;SDS011;66439;50.106;10.996;2023-03-23T09:38:50;25.90;;;13.20;;
77379;SDS011;66439;50.106;10.996;2023-03-23T09:41:13;30.00;;;17.10;;
77379;SDS011;66439;50.106;10.996;2023-03-23T09:48:19;28.80;;;14.00;;
77379;SDS011;66439;50.106;10.996;2023-03-23T09:50:32;31.30;;;12.90;;
77379;SDS011;66439;50.106;10.996;2023-03-23T09:52:41;28.10;;;11.80;;
77379;SDS011;66439;50.106;10.996;2023-03-23T09:54:46;27.10;;;13.80;;
77379;SDS011;66439;50.106;10.996;2023-03-23T09:56:51;27.60;;;12.10;;
77379;SDS011;66439;50.106;10.996;2023-03-23T09:59:00;25.50;;;11.50;;
77379;SDS011;66439;50.106;10.996;2023-03-23T10:01:20;20.00;;;9.70;;
77379;SDS011;66439;50.106;10.996;2023-03-23T10:03:32;24.50;;;10.30;;
77379;SDS011;66439;50.106;10.996;2023-03-23T10:07:50;23.00;;;10.90;;
77379;SDS011;66439;50.106;10.996;2023-03-23T10:09:53;30.80;;;12.50;;
77379;SDS011;66439;50.106;10.996;2023-03-23T10:14:43;24.10;;;11.60;;
77379;SDS011;66439;50.106;10.996;2023-03-23T10:17:19;26.60;;;10.80;;
77379;SDS011;66439;50.106;10.996;2023-03-23T10:19:28;29.10;;;10.30;;
77379;SDS011;66439;50.106;10.996;2023-03-23T10:21:39;23.50;;;9.90;;
77379;SDS011;66439;50.106;10.996;2023-03-23T10:28:19;18.90;;;9.70;;
77379;SDS011;66439;50.106;10.996;2023-03-23T10:30:30;26.80;;;13.90;;
77379;SDS011;66439;50.106;10.996;2023-03-23T10:32:54;23.30;;;11.20;;
77379;SDS011;66439;50.106;10.996;2023-03-23T10:35:01;20.30;;;9.60;;
77379;SDS011;66439;50.106;10.996;2023-03-23T10:39:22;20.70;;;10.50;;
77379;SDS011;66439;50.106;10.996;2023-03-23T10:41:28;21.80;;;10.10;;
77379;SDS011;66439;50.106;10.996;2023-03-23T10:43:30;20.20;;;11.60;;
77379;SDS011;66439;50.106;10.996;2023-03-23T10:45:32;24.90;;;12.80;;
77379;SDS011;66439;50.106;10.996;2023-03-23T10:47:36;27.20;;;9.50;;
77379;SDS011;66439;50.106;10.996;2023-03-23T10:49:43;28.00;;;11.60;;
77379;SDS011;66439;50.106;10.996;2023-03-23T10:51:55;33.20;;;9.70;;
77379;SDS011;66439;50.106;10.996;2023-03-23T10:54:02;33.00;;;15.00;;
77379;SDS011;66439;50.106;10.996;2023-03-23T10:56:17;22.90;;;11.70;;
77379;SDS011;66439;50.106;10.996;2023-03-23T10:58:25;21.00;;;12.50;;
77379;SDS011;66439;50.106;10.996;2023-03-23T11:00:32;23.70;;;13.80;;
77379;SDS011;66439;50.106;10.996;2023-03-23T11:02:44;19.60;;;7.50;;
77379;SDS011;66439;50.106;10.996;2023-03-23T11:05:35;15.40;;;8.80;;
77379;SDS011;66439;50.106;10.996;2023-03-23T11:07:25;23.70;;;11.80;;
77379;SDS011;66439;50.106;10.996;2023-03-23T11:09:34;20.10;;;7.90;;
77379;SDS011;66439;50.106;10.996;2023-03-23T11:11:41;23.30;;;8.20;;
77379;SDS011;66439;50.106;10.996;2023-03-23T11:13:46;19.10;;;7.70;;
77379;SDS011;66439;50.106;10.996;2023-03-23T11:15:49;18.90;;;8.70;;
77379;SDS011;66439;50.106;10.996;2023-03-23T11:17:55;17.60;;;10.60;;
77379;SDS011;66439;50.106;10.996;2023-03-23T11:20:08;18.60;;;11.60;;
77379;SDS011;66439;50.106;10.996;2023-03-23T11:22:28;20.00;;;9.20;;
77379;SDS011;66439;50.106;10.996;2023-03-23T11:24:36;17.10;;;10.10;;
77379;SDS011;66439;50.106;10.996;2023-03-23T11:26:44;26.20;;;9.90;;
77379;SDS011;66439;50.106;10.996;2023-03-23T11:29:03;18.00;;;10.60;;
77379;SDS011;66439;50.106;10.996;2023-03-23T11:31:11;15.70;;;8.90;;
77379;SDS011;66439;50.106;10.996;2023-03-23T11:33:13;17.00;;;8.20;;
77379;SDS011;66439;50.106;10.996;2023-03-23T11:35:22;14.50;;;8.20;;
77379;SDS011;66439;50.106;10.996;2023-03-23T11:37:33;17.30;;;8.10;;
77379;SDS011;66439;50.106;10.996;2023-03-23T11:42:18;19.60;;;9.20;;
77379;SDS011;66439;50.106;10.996;2023-03-23T11:44:23;29.40;;;11.00;;
77379;SDS011;66439;50.106;10.996;2023-03-23T11:49:08;22.30;;;14.10;;
77379;SDS011;66439;50.106;10.996;2023-03-23T11:53:59;24.50;;;10.20;;
77379;SDS011;66439;50.106;10.996;2023-03-23T11:56:28;21.20;;;9.90;;
77379;SDS011;66439;50.106;10.996;2023-03-23T11:58:31;20.20;;;10.40;;
77379;SDS011;66439;50.106;10.996;2023-03-23T12:00:35;20.10;;;11.30;;
77379;SDS011;66439;50.106;10.996;2023-03-23T12:07:50;16.50;;;10.30;;
77379;SDS011;66439;50.106;10.996;2023-03-23T12:10:08;14.70;;;8.10;;
77379;SDS011;66439;50.106;10.996;2023-03-23T12:12:24;18.00;;;8.90;;
77379;SDS011;66439;50.106;10.996;2023-03-23T12:19:39;17.20;;;9.60;;
77379;SDS011;66439;50.106;10.996;2023-03-23T12:24:33;20.10;;;9.80;;
77379;SDS011;66439;50.106;10.996;2023-03-23T12:26:57;17.10;;;11.10;;
77379;SDS011;66439;50.106;10.996;2023-03-23T12:29:14;18.70;;;8.90;;
77379;SDS011;66439;50.106;10.996;2023-03-23T12:36:04;25.10;;;9.90;;
77379;SDS011;66439;50.106;10.996;2023-03-23T12:40:57;21.10;;;9.30;;
77379;SDS011;66439;50.106;10.996;2023-03-23T12:48:09;17.20;;;8.50;;
77379;SDS011;66439;50.106;10.996;2023-03-23T12:50:24;19.50;;;10.90;;
77379;SDS011;66439;50.106;10.996;2023-03-23T12:52:32;15.90;;;9.10;;
77379;SDS011;66439;50.106;10.996;2023-03-23T12:57:12;23.10;;;7.70;;
77379;SDS011;66439;50.106;10.996;2023-03-23T12:59:34;20.90;;;9.00;;
77379;SDS011;66439;50.106;10.996;2023-03-23T13:01:43;16.30;;;5.70;;
77379;SDS011;66439;50.106;10.996;2023-03-23T13:08:16;14.40;;;7.30;;
77379;SDS011;66439;50.106;10.996;2023-03-23T13:10:23;10.90;;;5.00;;
77379;SDS011;66439;50.106;10.996;2023-03-23T13:12:29;15.70;;;5.40;;
77379;SDS011;66439;50.106;10.996;2023-03-23T13:14:43;9.80;;;5.30;;
77379;SDS011;66439;50.106;10.996;2023-03-23T13:19:27;13.40;;;5.40;;
77379;SDS011;66439;50.106;10.996;2023-03-23T13:22:02;12.80;;;5.20;;
77379;SDS011;66439;50.106;10.996;2023-03-23T13:24:10;11.70;;;5.40;;
77379;SDS011;66439;50.106;10.996;2023-03-23T13:26:18;17.00;;;5.60;;
77379;SDS011;66439;50.106;10.996;2023-03-23T13:28:25;18.70;;;6.70;;
77379;SDS011;66439;50.106;10.996;2023-03-23T13:30:33;15.80;;;5.90;;
77379;SDS011;66439;50.106;10.996;2023-03-23T13:32:35;13.60;;;7.40;;
77379;SDS011;66439;50.106;10.996;2023-03-23T13:34:42;21.10;;;7.60;;
77379;SDS011;66439;50.106;10.996;2023-03-23T13:36:51;16.00;;;6.80;;
77379;SDS011;66439;50.106;10.996;2023-03-23T13:38:53;17.30;;;7.20;;
77379;SDS011;66439;50.106;10.996;2023-03-23T13:40:55;15.10;;;8.00;;
77379;SDS011;66439;50.106;10.996;2023-03-23T13:42:58;24.00;;;7.90;;